createdAt,value
2019-02-02T00:00:39.267Z,21.67
2019-02-02T00:03:07.977Z,20.57
2019-02-02T00:05:36.339Z,18.40
2019-02-02T00:08:05.452Z,20.47
2019-02-02T00:10:33.779Z,19.67
2019-02-02T00:13:02.402Z,22.03
2019-02-02T00:15:30.699Z,22.50
2019-02-02T00:17:59.111Z,19.60
2019-02-02T00:20:27.491Z,19.63
2019-02-02T00:22:55.864Z,17.27
2019-02-02T00:25:24.157Z,20.73
2019-02-02T00:27:52.727Z,22.50
2019-02-02T00:30:21.105Z,19.40
2019-02-02T00:32:49.494Z,22.20
2019-02-02T00:35:17.822Z,18.10
2019-02-02T00:37:46.203Z,19.70
2019-02-02T00:40:19.220Z,24.30
2019-02-02T00:42:47.534Z,20.80
2019-02-02T00:45:18.542Z,21.07
2019-02-02T00:47:46.898Z,20.97
2019-02-02T00:50:15.647Z,19.70
2019-02-02T00:52:44.104Z,19.70
2019-02-02T00:55:16.911Z,20.70
2019-02-02T00:57:52.952Z,21.40
2019-02-02T01:00:21.745Z,21.63
2019-02-02T01:02:50.172Z,19.20
2019-02-02T01:05:22.979Z,21.13
2019-02-02T01:07:52.122Z,16.37
2019-02-02T01:10:32.347Z,23.13
2019-02-02T01:13:00.641Z,18.57
2019-02-02T01:15:29.030Z,22.50
2019-02-02T01:17:57.395Z,22.17
2019-02-02T01:20:25.771Z,23.10
2019-02-02T01:22:54.078Z,22.50
2019-02-02T01:25:22.469Z,23.03
2019-02-02T01:27:50.871Z,23.80
2019-02-02T01:30:23.493Z,19.93
2019-02-02T01:32:51.826Z,20.70
2019-02-02T01:35:20.203Z,17.87
2019-02-02T01:37:48.579Z,23.73
2019-02-02T01:40:22.473Z,21.30
2019-02-02T01:42:50.867Z,21.77
2019-02-02T01:45:22.649Z,19.17
2019-02-02T01:47:51.131Z,20.77
2019-02-02T01:50:21.537Z,19.23
2019-02-02T01:52:49.952Z,18.90
2019-02-02T01:55:18.631Z,20.50
2019-02-02T01:57:47.059Z,19.47
2019-02-02T02:00:20.891Z,19.70
2019-02-02T02:03:08.688Z,18.97
2019-02-02T02:05:36.999Z,21.73
2019-02-02T02:08:24.829Z,19.20
2019-02-02T02:10:53.211Z,18.77
2019-02-02T02:13:21.603Z,19.47
2019-02-02T02:15:49.909Z,20.87
2019-02-02T02:18:23.395Z,19.00
2019-02-02T02:20:51.704Z,17.43
2019-02-02T02:23:20.077Z,16.47
2019-02-02T02:25:48.433Z,21.23
2019-02-02T02:28:27.525Z,21.50
2019-02-02T02:30:47.418Z,18.27
2019-02-02T02:33:16.049Z,19.73
2019-02-02T02:35:44.497Z,21.07
2019-02-02T02:38:12.870Z,20.17
2019-02-02T02:40:41.585Z,21.23
2019-02-02T02:43:09.951Z,19.03
2019-02-02T02:45:38.372Z,18.20
2019-02-02T02:48:09.761Z,17.60
2019-02-02T02:50:38.232Z,20.23
2019-02-02T02:53:06.613Z,21.37
2019-02-02T02:55:34.983Z,19.57
2019-02-02T02:58:03.385Z,20.27
2019-02-02T03:00:31.753Z,21.43
2019-02-02T03:03:00.155Z,23.90
2019-02-02T03:05:28.549Z,24.17
2019-02-02T03:07:56.931Z,21.53
2019-02-02T03:10:26.052Z,22.37
2019-02-02T03:12:54.854Z,21.13
2019-02-02T03:15:23.391Z,19.33
2019-02-02T03:17:51.902Z,20.30
2019-02-02T03:20:20.320Z,19.50
2019-02-02T03:22:48.667Z,22.20
2019-02-02T03:25:20.053Z,19.87
2019-02-02T03:27:49.565Z,21.30
2019-02-02T03:30:19.593Z,23.20
2019-02-02T03:32:48.058Z,21.17
2019-02-02T03:35:18.542Z,23.30
2019-02-02T03:37:47.044Z,23.43
2019-02-02T03:40:17.379Z,22.20
2019-02-02T03:42:45.781Z,22.20
2019-02-02T03:45:19.617Z,21.80
2019-02-02T03:47:48.010Z,21.10
2019-02-02T03:50:16.405Z,21.47
2019-02-02T03:52:44.753Z,21.20
2019-02-02T03:55:14.629Z,21.50
2019-02-02T03:57:43.006Z,22.63
2019-02-02T04:00:14.292Z,20.30
2019-02-02T04:02:42.607Z,21.47
2019-02-02T04:05:13.712Z,22.00
2019-02-02T04:07:42.048Z,22.03
2019-02-02T04:10:12.343Z,19.57
2019-02-02T04:12:42.378Z,20.47
2019-02-02T04:15:12.507Z,19.43
2019-02-02T04:17:40.924Z,20.13
2019-02-02T04:20:15.562Z,21.07
2019-02-02T04:22:43.889Z,17.77
2019-02-02T04:25:12.432Z,20.03
2019-02-02T04:27:40.832Z,21.33
2019-02-02T04:30:17.658Z,19.30
2019-02-02T04:32:46.043Z,21.03
2019-02-02T04:35:15.412Z,23.00
2019-02-02T04:37:43.805Z,22.27
2019-02-02T04:40:14.076Z,20.83
2019-02-02T04:42:42.415Z,22.17
2019-02-02T04:45:12.770Z,22.90
2019-02-02T04:47:41.074Z,24.93
2019-02-02T04:50:12.270Z,23.13
2019-02-02T04:52:40.634Z,26.87
2019-02-02T04:55:10.810Z,24.53
2019-02-02T04:57:39.288Z,28.17
2019-02-02T05:00:10.933Z,25.60
2019-02-02T05:02:39.298Z,27.53
2019-02-02T05:05:11.004Z,26.17
2019-02-02T05:07:39.347Z,25.50
2019-02-02T05:10:22.402Z,27.43
2019-02-02T05:12:51.413Z,24.87
2019-02-02T05:15:19.807Z,30.10
2019-02-02T05:17:48.238Z,27.30
2019-02-02T05:20:18.291Z,31.90
2019-02-02T05:22:46.670Z,26.50
2019-02-02T05:25:15.231Z,26.77
2019-02-02T05:27:43.622Z,28.50
2019-02-02T05:30:26.989Z,26.87
2019-02-02T05:32:55.396Z,32.03
2019-02-02T05:35:23.765Z,27.90
2019-02-02T05:37:52.094Z,34.27
2019-02-02T05:40:21.389Z,31.90
2019-02-02T05:42:49.762Z,31.97
2019-02-02T05:45:19.806Z,31.20
2019-02-02T05:47:48.171Z,34.70
2019-02-02T05:50:18.562Z,32.30
2019-02-02T05:52:46.910Z,36.27
2019-02-02T05:55:17.080Z,34.97
2019-02-02T05:57:45.460Z,30.20
2019-02-02T06:00:41.279Z,32.73
2019-02-02T06:03:09.729Z,34.40
2019-02-02T06:05:38.102Z,38.43
2019-02-02T06:08:06.473Z,30.60
2019-02-02T06:10:34.797Z,29.30
2019-02-02T06:13:03.169Z,29.27
2019-02-02T06:15:31.544Z,32.87
2019-02-02T06:18:00.017Z,40.03
2019-02-02T06:20:28.414Z,32.03
2019-02-02T06:22:56.771Z,38.37
2019-02-02T06:25:25.086Z,33.37
2019-02-02T06:27:53.470Z,35.93
2019-02-02T06:30:25.357Z,32.73
2019-02-02T06:32:53.732Z,32.47
2019-02-02T06:35:22.105Z,32.63
2019-02-02T06:37:50.966Z,33.17
2019-02-02T06:40:19.361Z,31.03
2019-02-02T06:42:47.720Z,37.30
2019-02-02T06:45:33.541Z,34.77
2019-02-02T06:48:01.939Z,41.03
2019-02-02T06:50:30.283Z,39.60
2019-02-02T06:52:59.492Z,34.53
2019-02-02T06:55:27.859Z,39.03
2019-02-02T06:57:56.223Z,34.57
2019-02-02T07:00:30.056Z,31.77
2019-02-02T07:02:58.427Z,39.93
2019-02-02T07:05:26.718Z,31.67
2019-02-02T07:07:55.134Z,39.97
2019-02-02T07:10:26.836Z,38.27
2019-02-02T07:12:55.279Z,36.80
2019-02-02T07:15:29.143Z,37.60
2019-02-02T07:17:57.530Z,41.00
2019-02-02T07:20:25.975Z,41.23
2019-02-02T07:22:54.419Z,42.00
2019-02-02T07:25:22.868Z,36.93
2019-02-02T07:27:51.207Z,39.07
2019-02-02T07:30:28.727Z,38.30
2019-02-02T07:32:52.301Z,34.73
2019-02-02T07:35:20.681Z,36.57
2019-02-02T07:37:48.991Z,46.77
2019-02-02T07:40:18.569Z,38.37
2019-02-02T07:42:46.981Z,38.77
2019-02-02T07:45:29.651Z,36.43
2019-02-02T07:47:57.959Z,41.23
2019-02-02T07:50:26.271Z,34.90
2019-02-02T07:52:54.715Z,37.53
2019-02-02T07:55:23.381Z,41.90
2019-02-02T07:57:51.824Z,42.13
2019-02-02T08:00:40.211Z,39.77
2019-02-02T08:03:02.006Z,39.43
2019-02-02T08:05:30.486Z,39.37
2019-02-02T08:07:58.970Z,37.50
2019-02-02T08:10:27.330Z,36.43
2019-02-02T08:12:55.694Z,42.83
2019-02-02T08:15:32.010Z,40.53
2019-02-02T08:18:00.491Z,42.20
2019-02-02T08:20:28.818Z,45.33
2019-02-02T08:22:57.220Z,42.57
2019-02-02T08:25:25.678Z,39.27
2019-02-02T08:27:54.062Z,41.53
2019-02-02T08:30:25.275Z,39.47
2019-02-02T08:32:53.630Z,39.87
2019-02-02T08:35:23.622Z,35.03
2019-02-02T08:37:53.726Z,37.37
2019-02-02T08:40:22.108Z,40.80
2019-02-02T08:42:50.411Z,40.10
2019-02-02T08:45:18.742Z,40.13
2019-02-02T08:47:47.110Z,40.10
2019-02-02T08:50:21.489Z,35.93
2019-02-02T08:52:49.850Z,37.93
2019-02-02T08:55:18.301Z,42.43
2019-02-02T08:57:46.637Z,42.70
2019-02-02T09:00:17.149Z,40.33
2019-02-02T09:02:45.569Z,37.73
2019-02-02T09:05:16.069Z,35.33
2019-02-02T09:07:44.750Z,38.20
2019-02-02T09:10:32.615Z,39.53
2019-02-02T09:13:00.987Z,41.13
2019-02-02T09:15:29.382Z,37.10
2019-02-02T09:17:57.786Z,43.40
2019-02-02T09:20:26.226Z,42.80
2019-02-02T09:23:04.024Z,42.93
2019-02-02T09:25:24.658Z,42.23
2019-02-02T09:27:53.119Z,40.00
2019-02-02T09:30:26.417Z,38.90
2019-02-02T09:32:54.832Z,34.87
2019-02-02T09:35:23.171Z,38.17
2019-02-02T09:37:51.544Z,44.93
2019-02-02T09:40:20.192Z,39.63
2019-02-02T09:42:48.575Z,43.10
2019-02-02T09:45:20.136Z,43.97
2019-02-02T09:47:48.670Z,49.50
2019-02-02T09:50:24.847Z,43.10
2019-02-02T09:52:53.255Z,45.33
2019-02-02T09:55:25.574Z,43.57
2019-02-02T09:57:56.547Z,44.37
2019-02-02T10:00:26.803Z,41.93
2019-02-02T10:02:55.781Z,43.97
2019-02-02T10:05:24.163Z,38.97
2019-02-02T10:07:52.515Z,38.97
2019-02-02T10:10:25.668Z,38.00
2019-02-02T10:12:54.056Z,41.00
2019-02-02T10:15:22.492Z,45.63
2019-02-02T10:17:50.867Z,43.47
2019-02-02T10:20:21.980Z,46.03
2019-02-02T10:22:50.577Z,47.50
2019-02-02T10:25:24.119Z,44.43
2019-02-02T10:27:52.413Z,45.10
2019-02-02T10:30:23.656Z,39.70
2019-02-02T10:32:52.095Z,41.53
2019-02-02T10:35:20.426Z,41.90
2019-02-02T10:37:48.815Z,47.50
2019-02-02T10:40:17.209Z,36.00
2019-02-02T10:42:45.579Z,39.00
2019-02-02T10:45:15.857Z,38.03
2019-02-02T10:47:44.251Z,41.13
2019-02-02T10:50:15.565Z,40.03
2019-02-02T10:52:43.958Z,37.03
2019-02-02T10:55:14.130Z,39.10
2019-02-02T10:57:42.531Z,35.43
2019-02-02T11:00:22.734Z,39.43
2019-02-02T11:02:51.033Z,40.10
2019-02-02T11:05:19.363Z,46.67
2019-02-02T11:07:47.896Z,37.70
2019-02-02T11:10:21.625Z,33.63
2019-02-02T11:12:50.007Z,37.47
2019-02-02T11:15:20.339Z,41.50
2019-02-02T11:17:48.765Z,34.33
2019-02-02T11:20:29.103Z,32.73
2019-02-02T11:22:57.596Z,36.30
2019-02-02T11:25:26.193Z,36.27
2019-02-02T11:27:54.820Z,42.87
2019-02-02T11:30:23.562Z,41.53
2019-02-02T11:32:51.938Z,37.13
2019-02-02T11:35:21.349Z,39.43
2019-02-02T11:37:49.835Z,40.50
2019-02-02T11:40:32.570Z,33.03
2019-02-02T11:43:01.125Z,37.00
2019-02-02T11:45:29.655Z,42.47
2019-02-02T11:47:58.022Z,36.97
2019-02-02T11:50:26.424Z,34.67
2019-02-02T11:52:54.873Z,40.57
2019-02-02T11:55:25.076Z,37.53
2019-02-02T11:57:53.440Z,39.43
2019-02-02T12:00:24.704Z,34.80
2019-02-02T12:02:53.095Z,39.53
2019-02-02T12:05:21.504Z,39.53
2019-02-02T12:07:49.878Z,35.83
2019-02-02T12:10:26.679Z,34.63
2019-02-02T12:12:55.002Z,37.47
2019-02-02T12:15:23.384Z,40.77
2019-02-02T12:17:51.741Z,32.67
2019-02-02T12:20:24.502Z,35.63
2019-02-02T12:22:52.962Z,37.27
2019-02-02T12:25:21.269Z,33.83
2019-02-02T12:27:49.597Z,41.80
2019-02-02T12:30:20.699Z,36.97
2019-02-02T12:32:49.100Z,37.17
2019-02-02T12:35:20.129Z,34.77
2019-02-02T12:37:48.521Z,36.27
2019-02-02T12:40:19.495Z,35.17
2019-02-02T12:42:47.918Z,37.27
2019-02-02T12:45:19.412Z,34.30
2019-02-02T12:47:47.872Z,29.30
2019-02-02T12:50:17.328Z,38.07
2019-02-02T12:52:45.792Z,29.93
2019-02-02T12:55:14.216Z,32.00
2019-02-02T12:57:42.758Z,32.13
2019-02-02T13:00:18.750Z,28.87
2019-02-02T13:02:47.138Z,31.23
2019-02-02T13:05:17.364Z,34.80
2019-02-02T13:07:45.679Z,30.83
2019-02-02T13:10:20.091Z,36.37
2019-02-02T13:12:48.396Z,32.03
2019-02-02T13:15:16.804Z,35.27
2019-02-02T13:17:45.184Z,35.40
2019-02-02T13:20:15.779Z,28.33
2019-02-02T13:22:44.231Z,34.90
2019-02-02T13:25:15.460Z,33.27
2019-02-02T13:27:43.824Z,34.70
2019-02-02T13:30:19.703Z,30.57
2019-02-02T13:32:49.955Z,33.37
2019-02-02T13:35:19.265Z,34.20
2019-02-02T13:37:47.549Z,35.13
2019-02-02T13:40:18.983Z,32.70
2019-02-02T13:42:47.294Z,36.40
2019-02-02T13:45:18.411Z,32.13
2019-02-02T13:47:46.746Z,33.37
2019-02-02T13:50:18.962Z,32.80
2019-02-02T13:52:48.518Z,36.07
2019-02-02T13:55:16.912Z,29.47
2019-02-02T13:57:45.298Z,30.77
2019-02-02T14:00:22.920Z,30.90
2019-02-02T14:03:02.046Z,33.47
2019-02-02T14:05:21.306Z,34.40
2019-02-02T14:07:49.712Z,32.00
2019-02-02T14:10:20.345Z,28.50
2019-02-02T14:12:48.803Z,35.43
2019-02-02T14:15:17.203Z,36.60
2019-02-02T14:17:45.598Z,32.87
2019-02-02T14:20:14.728Z,29.83
2019-02-02T14:22:43.055Z,28.53
2019-02-02T14:25:13.958Z,30.23
2019-02-02T14:27:42.351Z,32.47
2019-02-02T14:30:16.245Z,28.37
2019-02-02T14:32:44.706Z,31.43
2019-02-02T14:35:15.535Z,27.67
2019-02-02T14:37:43.888Z,30.97
2019-02-02T14:40:19.723Z,31.83
2019-02-02T14:42:48.031Z,33.90
2019-02-02T14:45:18.448Z,33.93
2019-02-02T14:47:46.772Z,33.23
2019-02-02T14:50:19.006Z,28.27
2019-02-02T14:52:47.013Z,28.97
2019-02-02T14:55:20.115Z,28.60
2019-02-02T14:57:48.420Z,30.40
2019-02-02T15:00:23.405Z,28.33
2019-02-02T15:02:51.769Z,30.07
2019-02-02T15:05:21.737Z,26.03
2019-02-02T15:07:50.119Z,27.23
2019-02-02T15:10:19.150Z,35.10
2019-02-02T15:12:47.543Z,25.17
2019-02-02T15:15:16.982Z,28.50
2019-02-02T15:17:45.372Z,23.73
2019-02-02T15:20:22.174Z,29.40
2019-02-02T15:22:49.796Z,29.00
2019-02-02T15:25:18.188Z,30.73
2019-02-02T15:27:46.597Z,27.53
2019-02-02T15:30:23.074Z,26.80
2019-02-02T15:32:51.451Z,28.00
2019-02-02T15:35:19.876Z,27.83
2019-02-02T15:37:48.230Z,25.60
2019-02-02T15:40:18.339Z,24.73
2019-02-02T15:42:46.721Z,26.63
2019-02-02T15:45:17.942Z,29.23
2019-02-02T15:47:46.314Z,25.37
2019-02-02T15:50:16.132Z,23.90
2019-02-02T15:52:44.668Z,22.80
2019-02-02T15:55:15.607Z,21.77
2019-02-02T15:57:43.980Z,21.17
2019-02-02T16:00:15.920Z,20.77
2019-02-02T16:02:44.225Z,19.13
2019-02-02T16:05:15.135Z,18.27
2019-02-02T16:07:43.441Z,19.63
2019-02-02T16:10:15.471Z,19.77
2019-02-02T16:12:43.884Z,16.13
2019-02-02T16:15:12.299Z,19.87
2019-02-02T16:17:40.668Z,15.77
2019-02-02T16:20:15.213Z,17.70
2019-02-02T16:22:43.582Z,18.20
2019-02-02T16:25:13.218Z,20.10
2019-02-02T16:27:41.591Z,19.90
2019-02-02T16:30:29.808Z,16.50
2019-02-02T16:32:58.164Z,17.97
2019-02-02T16:35:26.550Z,18.57
2019-02-02T16:37:54.962Z,19.47
2019-02-02T16:40:30.205Z,18.97
2019-02-02T16:42:58.592Z,17.63
2019-02-02T16:45:34.402Z,19.90
2019-02-02T16:48:02.798Z,15.27
2019-02-02T16:50:34.154Z,16.27
2019-02-02T16:53:02.538Z,19.17
2019-02-02T16:55:30.904Z,18.73
2019-02-02T16:57:59.207Z,16.17
2019-02-02T17:00:33.098Z,16.77
2019-02-02T17:03:01.494Z,18.73
2019-02-02T17:05:29.875Z,18.80
2019-02-02T17:07:58.283Z,19.13
2019-02-02T17:10:28.971Z,16.70
2019-02-02T17:12:57.343Z,18.43
2019-02-02T17:15:25.711Z,14.90
2019-02-02T17:17:53.991Z,16.37
2019-02-02T17:20:31.446Z,15.73
2019-02-02T17:22:59.811Z,19.57
2019-02-02T17:25:28.195Z,19.67
2019-02-02T17:27:56.615Z,17.13
2019-02-02T17:30:25.844Z,15.33
2019-02-02T17:32:56.582Z,18.33
2019-02-02T17:35:24.904Z,14.70
2019-02-02T17:37:53.295Z,18.67
2019-02-02T17:40:23.750Z,18.00
2019-02-02T17:42:52.110Z,15.53
2019-02-02T17:45:21.748Z,16.73
2019-02-02T17:47:50.130Z,19.33
2019-02-02T17:50:21.038Z,16.83
2019-02-02T17:52:49.424Z,16.60
2019-02-02T17:55:18.025Z,18.70
2019-02-02T17:57:46.404Z,17.47
2019-02-02T18:00:28.281Z,19.10
2019-02-02T18:02:56.684Z,17.43
2019-02-02T18:05:25.079Z,16.13
2019-02-02T18:07:55.430Z,17.93
2019-02-02T18:10:23.516Z,20.23
2019-02-02T18:12:51.939Z,16.37
2019-02-02T18:15:21.945Z,18.33
2019-02-02T18:17:50.258Z,16.63
2019-02-02T18:20:18.582Z,17.23
2019-02-02T18:22:46.990Z,17.73
2019-02-02T18:25:16.433Z,20.77
2019-02-02T18:27:44.813Z,16.63
2019-02-02T18:30:19.416Z,21.43
2019-02-02T18:32:47.758Z,20.37
2019-02-02T18:35:16.737Z,17.97
2019-02-02T18:37:45.208Z,16.53
2019-02-02T18:40:18.944Z,19.07
2019-02-02T18:42:47.360Z,20.97
2019-02-02T18:45:18.352Z,18.73
2019-02-02T18:47:46.642Z,20.63
2019-02-02T18:50:16.611Z,19.23
2019-02-02T18:52:46.533Z,16.47
2019-02-02T18:55:23.729Z,17.27
2019-02-02T18:57:52.108Z,19.47
2019-02-02T19:00:21.343Z,16.17
2019-02-02T19:02:49.742Z,18.17
2019-02-02T19:05:18.125Z,19.83
2019-02-02T19:07:46.510Z,16.80
2019-02-02T19:10:20.504Z,17.30
2019-02-02T19:12:48.791Z,17.20
2019-02-02T19:15:17.131Z,17.03
2019-02-02T19:17:45.888Z,17.83
2019-02-02T19:20:19.356Z,22.27
2019-02-02T19:22:47.648Z,19.03
2019-02-02T19:25:15.966Z,19.17
2019-02-02T19:27:44.372Z,23.37
2019-02-02T19:30:18.276Z,20.77
2019-02-02T19:32:46.670Z,16.20
2019-02-02T19:35:16.423Z,18.87
2019-02-02T19:37:45.038Z,19.07
2019-02-02T19:40:15.814Z,20.23
2019-02-02T19:42:44.211Z,18.03
2019-02-02T19:45:15.226Z,17.73
2019-02-02T19:47:43.627Z,17.60
2019-02-02T19:50:15.466Z,16.87
2019-02-02T19:52:43.793Z,19.97
2019-02-02T19:55:14.597Z,18.33
2019-02-02T19:57:42.231Z,15.80
2019-02-02T20:00:13.909Z,21.33
2019-02-02T20:02:42.268Z,18.73
2019-02-02T20:05:10.654Z,19.63
2019-02-02T20:07:39.047Z,17.10
2019-02-02T20:10:16.650Z,16.10
2019-02-02T20:12:45.018Z,15.70
2019-02-02T20:15:18.667Z,15.90
2019-02-02T20:17:47.041Z,16.67
2019-02-02T20:20:17.742Z,14.70
2019-02-02T20:22:46.236Z,13.93
2019-02-02T20:25:15.441Z,14.27
2019-02-02T20:27:44.173Z,16.83
2019-02-02T20:30:15.180Z,16.87
2019-02-02T20:32:43.552Z,15.53
2019-02-02T20:35:13.783Z,19.67
2019-02-02T20:37:42.165Z,18.83
2019-02-02T20:40:13.187Z,18.13
2019-02-02T20:42:41.603Z,23.77
2019-02-02T20:45:13.005Z,19.57
2019-02-02T20:47:41.423Z,15.17
2019-02-02T20:50:12.629Z,18.87
2019-02-02T20:52:47.580Z,19.37
2019-02-02T20:55:13.853Z,15.90
2019-02-02T20:57:42.240Z,17.73
2019-02-02T21:00:16.692Z,16.03
2019-02-02T21:02:45.075Z,17.47
2019-02-02T21:05:14.091Z,16.33
2019-02-02T21:07:42.471Z,15.60
2019-02-02T21:10:21.843Z,18.03
2019-02-02T21:12:50.221Z,17.97
2019-02-02T21:15:18.690Z,18.57
2019-02-02T21:17:47.254Z,18.70
2019-02-02T21:20:17.921Z,17.83
2019-02-02T21:22:46.347Z,20.20
2019-02-02T21:25:15.687Z,19.57
2019-02-02T21:27:44.073Z,17.20
2019-02-02T21:30:18.335Z,17.17
2019-02-02T21:32:46.697Z,19.10
2019-02-02T21:35:15.156Z,19.93
2019-02-02T21:37:43.763Z,19.20
2019-02-02T21:40:17.663Z,21.80
2019-02-02T21:42:46.063Z,17.33
2019-02-02T21:45:14.982Z,20.90
2019-02-02T21:47:43.502Z,20.90
2019-02-02T21:50:17.427Z,17.33
2019-02-02T21:52:45.884Z,19.13
2019-02-02T21:55:17.180Z,18.13
2019-02-02T21:57:45.567Z,20.17
2019-02-02T22:00:19.703Z,19.33
2019-02-02T22:02:48.035Z,18.93
2019-02-02T22:05:16.386Z,19.37
2019-02-02T22:07:47.309Z,20.77
2019-02-02T22:10:16.591Z,19.73
2019-02-02T22:12:44.949Z,18.67
2019-02-02T22:15:18.720Z,21.70
2019-02-02T22:17:47.283Z,19.60
2019-02-02T22:20:17.111Z,19.77
2019-02-02T22:22:45.517Z,22.33
2019-02-02T22:25:19.699Z,19.77
2019-02-02T22:27:48.356Z,20.20
2019-02-02T22:30:24.836Z,21.27
2019-02-02T22:32:53.184Z,20.63
2019-02-02T22:35:21.595Z,17.10
2019-02-02T22:37:49.953Z,19.77
2019-02-02T22:40:20.501Z,17.80
2019-02-02T22:42:49.031Z,19.17
2019-02-02T22:45:18.495Z,18.27
2019-02-02T22:47:47.129Z,14.77
2019-02-02T22:50:17.575Z,18.03
2019-02-02T22:52:46.061Z,18.63
2019-02-02T22:55:18.859Z,28.43
2019-02-02T22:57:47.259Z,20.77
2019-02-02T23:00:20.528Z,20.83
2019-02-02T23:02:48.842Z,21.40
2019-02-02T23:05:20.698Z,22.00
2019-02-02T23:07:52.387Z,23.90
2019-02-02T23:10:49.941Z,21.60
2019-02-02T23:13:27.679Z,20.30
2019-02-02T23:16:23.218Z,17.57
2019-02-02T23:18:52.044Z,20.20
2019-02-02T23:21:20.468Z,25.00
2019-02-02T23:23:48.938Z,25.47
2019-02-02T23:26:17.407Z,25.27
2019-02-02T23:28:45.785Z,23.87
2019-02-02T23:31:14.318Z,24.13
2019-02-02T23:33:42.918Z,23.27
2019-02-02T23:36:11.429Z,23.73
2019-02-02T23:38:39.837Z,21.97
2019-02-02T23:41:08.228Z,22.83
2019-02-02T23:43:36.656Z,22.80
2019-02-02T23:46:05.166Z,26.40
2019-02-02T23:48:33.547Z,26.53
2019-02-02T23:51:01.902Z,28.13
2019-02-02T23:53:30.288Z,27.23
2019-02-02T23:55:58.670Z,28.57
2019-02-02T23:58:27.038Z,25.93
